Samut Prakan, Thailand
Current Conditions -  °F | °C
As of 9:30 PM on Saturday 25 Oct 2014 (Local Time) from VTBS Reporting Station
Thunderstorm Thunderstorm  
Wind Chill: 77°   Ceiling: 11000
Heat Index: 78°   Visibility: 5mi
Dew Point: 73°   Wind: 5mph
Humidity: 89%   Direction: 280°W
Pressure: 29.91"   Gusts: NA
Location:  13.61°N, 100.61°E
Report Text: VTBS 251430Z 28004KT 240V010 8000 -TSRA FEW018CB SCT030 BKN11025/23 Q1013 NOSIG
Loading
Personal Weather Stations






























Interactive Weather Map New forecast layout! Learn more

10-Day Weather Forecast

Advertisements
Track Severe Weather on mobile